Terminal Aerodrome Forecast
Issued by NWS Twin Cities, MN

Home | Current Version | Previous Version | Graphics & Text | Print | Product List | Glossary On
Versions: 1 2 3 4 5 6 7 8 9 10 11 12 13 14 15 16 17 18 19 20 21 22 23 24 25 26 27 28
054
FTUS43 KMPX 242059 AAA
TAFMSP
TAF AMD
KMSP 242059Z 2421/2524 13015G22KT P6SM BKN020
     FM250000 13011KT P6SM BKN050
     FM250400 13011KT 6SM -SHRA VCTS OVC020CB
      TEMPO 2505/2509 3SM TSRA BR OVC008CB
     FM251000 18009KT P6SM SCT100
     FM251800 24012KT P6SM BKN025=

USA.gov is the U.S. government's official web portal to all federal, state and local government web resources and services.